createdAt,value
2022-11-10T00:02:38.968Z,8.50
2022-11-10T00:05:26.009Z,8.00
2022-11-10T00:08:13.130Z,9.00
2022-11-10T00:10:59.077Z,10.00
2022-11-10T00:13:58.917Z,8.50
2022-11-10T00:17:04.329Z,8.25
2022-11-10T00:19:50.533Z,8.50
2022-11-10T00:22:37.881Z,9.25
2022-11-10T00:25:24.028Z,8.00
2022-11-10T00:28:09.931Z,10.00
2022-11-10T00:30:55.849Z,9.00
2022-11-10T00:33:42.543Z,10.00
2022-11-10T00:36:28.777Z,11.50
2022-11-10T00:39:15.825Z,9.00
2022-11-10T00:42:01.814Z,9.00
2022-11-10T00:44:47.791Z,8.25
2022-11-10T00:47:33.591Z,8.00
2022-11-10T00:50:19.716Z,7.75
2022-11-10T00:53:05.887Z,7.25
2022-11-10T00:55:53.062Z,5.50
2022-11-10T00:58:38.987Z,9.00
2022-11-10T01:01:25.519Z,7.75
2022-11-10T01:04:11.754Z,11.00
2022-11-10T01:06:57.924Z,9.50
2022-11-10T01:09:44.283Z,8.00
2022-11-10T01:12:31.703Z,7.50
2022-11-10T01:15:17.627Z,6.75
2022-11-10T01:18:03.549Z,7.50
2022-11-10T01:20:51.076Z,9.00
2022-11-10T01:23:37.365Z,6.25
2022-11-10T01:26:23.277Z,8.75
2022-11-10T01:29:10.658Z,6.25
2022-11-10T01:31:56.375Z,6.25
2022-11-10T01:34:42.135Z,8.00
2022-11-10T01:37:28.252Z,8.00
2022-11-10T01:40:14.892Z,8.00
2022-11-10T01:43:00.745Z,6.50
2022-11-10T01:45:50.379Z,9.00
2022-11-10T01:48:38.453Z,6.75
2022-11-10T01:51:25.658Z,8.00
2022-11-10T01:54:12.948Z,7.00
2022-11-10T01:57:01.171Z,6.75
2022-11-10T01:59:48.104Z,7.00
2022-11-10T02:02:37.258Z,6.00
2022-11-10T02:05:23.337Z,7.00
2022-11-10T02:08:09.485Z,6.00
2022-11-10T02:10:55.388Z,8.00
2022-11-10T02:13:41.324Z,6.00
2022-11-10T02:16:27.209Z,6.00
2022-11-10T02:19:16.922Z,5.50
2022-11-10T02:22:04.374Z,5.75
2022-11-10T02:24:50.363Z,6.00
2022-11-10T02:27:36.153Z,6.75
2022-11-10T02:30:27.325Z,8.00
2022-11-10T02:33:13.587Z,7.00
2022-11-10T02:35:59.337Z,2.00
2022-11-10T02:38:46.413Z,7.75
2022-11-10T02:41:32.260Z,7.25
2022-11-10T02:44:18.213Z,6.75
2022-11-10T02:47:04.173Z,6.50
2022-11-10T02:49:50.250Z,5.00
2022-11-10T02:52:36.138Z,6.00
2022-11-10T02:55:23.394Z,5.00
2022-11-10T02:58:09.334Z,6.00
2022-11-10T03:00:55.255Z,7.00
2022-11-10T03:03:41.229Z,6.00
2022-11-10T03:06:27.187Z,6.00
2022-11-10T03:09:13.117Z,5.75
2022-11-10T03:12:00.686Z,5.50
2022-11-10T03:14:46.687Z,6.75
2022-11-10T03:17:32.417Z,7.50
2022-11-10T03:20:18.310Z,4.25
2022-11-10T03:23:04.587Z,6.50
2022-11-10T03:25:50.761Z,7.00
2022-11-10T03:28:38.017Z,5.75
2022-11-10T03:31:23.861Z,5.25
2022-11-10T03:34:09.783Z,6.00
2022-11-10T03:36:55.796Z,4.25
2022-11-10T03:39:41.547Z,5.00
2022-11-10T03:42:27.303Z,5.00
2022-11-10T03:45:15.010Z,4.50
2022-11-10T03:48:01.036Z,4.67
2022-11-10T03:50:47.038Z,5.00
2022-11-10T03:53:32.815Z,6.00
2022-11-10T03:56:18.933Z,4.67
2022-11-10T03:59:05.257Z,4.67
2022-11-10T04:01:52.668Z,4.67
2022-11-10T04:04:56.458Z,5.75
2022-11-10T04:08:00.186Z,6.67
2022-11-10T04:10:46.442Z,4.00
2022-11-10T04:13:50.005Z,5.33
2022-11-10T04:16:36.176Z,4.00
2022-11-10T04:19:23.354Z,7.00
2022-11-10T04:22:29.938Z,4.00
2022-11-10T04:25:15.808Z,6.00
2022-11-10T04:28:01.764Z,4.50
2022-11-10T04:30:47.544Z,5.00
2022-11-10T04:33:33.426Z,5.25
2022-11-10T04:36:21.599Z,3.00
2022-11-10T04:39:07.692Z,6.00
2022-11-10T04:41:57.150Z,5.33
2022-11-10T04:44:45.769Z,4.00
2022-11-10T04:47:31.618Z,3.50
2022-11-10T04:50:17.649Z,3.75
2022-11-10T04:53:05.097Z,5.25
2022-11-10T04:55:51.056Z,5.00
2022-11-10T04:58:36.977Z,4.00
2022-11-10T05:01:24.289Z,4.00
2022-11-10T05:04:10.608Z,5.25
2022-11-10T05:06:56.675Z,5.00
2022-11-10T05:09:43.887Z,6.00
2022-11-10T05:12:30.176Z,4.00
2022-11-10T05:15:16.161Z,4.00
2022-11-10T05:18:02.136Z,4.33
2022-11-10T05:20:47.960Z,1.67
2022-11-10T05:23:40.234Z,4.67
2022-11-10T05:26:27.652Z,4.00
2022-11-10T05:29:13.917Z,5.00
2022-11-10T05:31:59.800Z,3.67
2022-11-10T05:34:45.625Z,4.00
2022-11-10T05:37:31.597Z,3.33
2022-11-10T05:40:17.657Z,5.00
2022-11-10T05:43:05.109Z,4.00
2022-11-10T05:45:51.031Z,3.67
2022-11-10T05:48:36.769Z,4.00
2022-11-10T05:51:22.728Z,4.00
2022-11-10T05:54:09.572Z,4.00
2022-11-10T05:56:55.539Z,2.75
2022-11-10T05:59:42.714Z,4.00
2022-11-10T06:02:28.893Z,4.00
2022-11-10T06:05:15.006Z,4.00
2022-11-10T06:08:01.597Z,2.25
2022-11-10T06:10:47.815Z,4.00
2022-11-10T06:13:33.699Z,3.33
2022-11-10T06:16:20.881Z,3.25
2022-11-10T06:19:06.745Z,4.25
2022-11-10T06:21:57.614Z,4.00
2022-11-10T06:24:46.689Z,3.00
2022-11-10T06:27:32.758Z,4.00
2022-11-10T06:30:19.064Z,4.50
2022-11-10T06:33:06.487Z,3.50
2022-11-10T06:35:53.152Z,2.75
2022-11-10T06:38:39.197Z,3.00
2022-11-10T06:41:25.499Z,2.00
2022-11-10T06:44:11.969Z,4.00
2022-11-10T06:46:57.791Z,4.00
2022-11-10T06:49:45.213Z,4.50
2022-11-10T06:52:31.589Z,2.25
2022-11-10T06:55:17.541Z,4.50
2022-11-10T06:58:03.658Z,3.00
2022-11-10T07:00:50.758Z,3.00
2022-11-10T07:03:41.360Z,3.00
2022-11-10T07:06:40.531Z,4.00
2022-11-10T07:09:26.514Z,2.75
2022-11-10T07:12:12.381Z,1.00
2022-11-10T07:14:58.453Z,4.25
2022-11-10T07:17:44.385Z,3.00
2022-11-10T07:20:30.232Z,4.00
2022-11-10T07:23:17.509Z,2.00
2022-11-10T07:26:03.524Z,3.00
2022-11-10T07:28:49.368Z,2.25
2022-11-10T07:31:35.310Z,2.25
2022-11-10T07:34:21.444Z,2.25
2022-11-10T07:37:07.360Z,2.00
2022-11-10T07:39:54.621Z,2.33
2022-11-10T07:42:40.985Z,2.00
2022-11-10T07:45:27.158Z,2.25
2022-11-10T07:48:13.073Z,3.00
2022-11-10T07:50:58.968Z,3.25
2022-11-10T07:53:44.736Z,2.75
2022-11-10T07:56:31.931Z,2.00
2022-11-10T07:59:17.878Z,2.00
2022-11-10T08:02:03.742Z,2.00
2022-11-10T08:04:49.414Z,3.00
2022-11-10T08:07:35.361Z,3.00
2022-11-10T08:10:21.781Z,3.00
2022-11-10T08:13:10.310Z,3.00
2022-11-10T08:15:58.850Z,2.75
2022-11-10T08:18:44.982Z,2.00
2022-11-10T08:21:30.887Z,2.00
2022-11-10T08:24:16.728Z,2.25
2022-11-10T08:27:02.697Z,3.00
2022-11-10T08:29:50.023Z,3.00
2022-11-10T08:32:35.995Z,2.00
2022-11-10T08:35:21.955Z,3.00
2022-11-10T08:38:09.661Z,2.50
2022-11-10T08:40:56.680Z,1.75
2022-11-10T08:43:42.905Z,3.00
2022-11-10T08:46:29.999Z,2.00
2022-11-10T08:49:15.858Z,2.75
2022-11-10T08:52:01.745Z,3.25
2022-11-10T08:54:47.715Z,2.00
2022-11-10T08:57:33.833Z,3.00
2022-11-10T09:00:20.260Z,3.00
2022-11-10T09:03:08.177Z,3.50
2022-11-10T09:05:58.295Z,3.00
2022-11-10T09:08:45.065Z,3.00
2022-11-10T09:11:31.173Z,3.00
2022-11-10T09:14:17.370Z,1.75
2022-11-10T09:17:03.756Z,1.00
2022-11-10T09:19:50.991Z,3.00
2022-11-10T09:22:36.893Z,3.00
2022-11-10T09:25:22.833Z,4.00
2022-11-10T09:28:12.380Z,3.25
2022-11-10T09:30:58.547Z,3.00
2022-11-10T09:33:44.802Z,3.00
2022-11-10T09:36:32.065Z,3.75
2022-11-10T09:39:18.441Z,3.50
2022-11-10T09:42:05.121Z,3.00
2022-11-10T09:44:52.226Z,2.75
2022-11-10T09:47:56.900Z,2.00
2022-11-10T09:50:45.545Z,3.00
2022-11-10T09:53:35.819Z,4.00
2022-11-10T09:56:23.634Z,3.00
2022-11-10T09:59:14.958Z,1.75
2022-11-10T10:02:03.520Z,4.50
2022-11-10T10:04:59.672Z,4.00
2022-11-10T10:07:49.568Z,3.00
2022-11-10T10:10:39.541Z,2.00
2022-11-10T10:13:32.196Z,3.75
2022-11-10T10:16:18.758Z,2.50
2022-11-10T10:19:08.971Z,2.25
2022-11-10T10:22:06.114Z,3.00
2022-11-10T10:24:53.139Z,2.75
2022-11-10T10:27:40.344Z,3.00
2022-11-10T10:30:26.147Z,3.00
2022-11-10T10:33:16.341Z,2.25
2022-11-10T10:36:03.095Z,3.00
2022-11-10T10:38:51.264Z,2.25
2022-11-10T10:41:37.100Z,3.00
2022-11-10T10:44:24.370Z,3.00
2022-11-10T10:47:10.263Z,3.50
2022-11-10T10:50:02.785Z,3.00
2022-11-10T10:52:56.970Z,2.50
2022-11-10T10:55:47.474Z,3.00
2022-11-10T10:58:34.914Z,2.00
2022-11-10T11:01:26.655Z,4.00
2022-11-10T11:04:27.458Z,4.00
2022-11-10T11:07:21.022Z,4.00
2022-11-10T11:10:18.845Z,3.00
2022-11-10T11:13:15.343Z,2.67
2022-11-10T11:16:02.161Z,3.00
2022-11-10T11:18:49.563Z,2.00
2022-11-10T11:21:37.100Z,2.00
2022-11-10T11:24:28.472Z,3.00
2022-11-10T11:27:18.349Z,3.00
2022-11-10T11:30:06.878Z,4.00
2022-11-10T11:32:59.308Z,4.00
2022-11-10T11:35:48.821Z,2.00
2022-11-10T11:38:45.495Z,3.00
2022-11-10T11:41:35.849Z,2.00
2022-11-10T11:44:34.216Z,2.00
2022-11-10T11:47:27.147Z,2.00
2022-11-10T11:50:20.661Z,2.50
2022-11-10T11:53:14.231Z,3.50
2022-11-10T11:56:05.768Z,5.00
2022-11-10T11:58:58.625Z,4.25
2022-11-10T12:01:51.745Z,3.00
2022-11-10T12:04:46.272Z,2.00
2022-11-10T12:07:42.938Z,2.25
2022-11-10T12:10:40.509Z,2.00
2022-11-10T12:13:38.857Z,3.00
2022-11-10T12:16:26.740Z,0.33
2022-11-10T12:19:18.820Z,1.67
2022-11-10T12:22:08.278Z,4.67
2022-11-10T12:25:01.626Z,4.50
2022-11-10T12:27:50.422Z,2.25
2022-11-10T12:30:36.670Z,3.33
2022-11-10T12:33:28.740Z,2.25
2022-11-10T12:36:15.372Z,3.00
2022-11-10T12:39:02.811Z,3.00
2022-11-10T12:41:54.475Z,0.00
2022-11-10T12:44:49.568Z,1.75
2022-11-10T12:47:48.893Z,2.00
2022-11-10T12:50:45.217Z,1.75
2022-11-10T12:53:32.057Z,3.00
2022-11-10T12:56:19.624Z,1.25
2022-11-10T12:59:23.620Z,1.00
2022-11-10T13:02:19.784Z,1.00
2022-11-10T13:05:32.086Z,2.00
2022-11-10T13:08:27.102Z,2.00
2022-11-10T13:11:35.655Z,2.00
2022-11-10T13:14:23.915Z,3.00
2022-11-10T13:17:11.096Z,2.00
2022-11-10T13:20:14.227Z,3.00
2022-11-10T13:23:21.739Z,3.00
2022-11-10T13:26:10.215Z,2.00
2022-11-10T13:28:58.410Z,3.00
2022-11-10T13:31:52.822Z,3.25
2022-11-10T13:34:41.674Z,3.00
2022-11-10T13:37:50.447Z,2.00
2022-11-10T13:40:39.619Z,2.50
2022-11-10T13:43:27.001Z,2.00
2022-11-10T13:46:13.071Z,2.00
2022-11-10T13:49:19.899Z,2.00
2022-11-10T13:52:11.381Z,3.00
2022-11-10T13:55:16.214Z,2.50
2022-11-10T13:58:03.483Z,2.00
2022-11-10T14:00:50.046Z,1.00
2022-11-10T14:03:57.294Z,2.50
2022-11-10T14:06:45.067Z,4.00
2022-11-10T14:09:33.431Z,2.50
2022-11-10T14:12:24.193Z,2.50
2022-11-10T14:15:14.076Z,2.00
2022-11-10T14:18:00.330Z,4.00
2022-11-10T14:20:46.737Z,3.00
2022-11-10T14:23:40.206Z,3.00
2022-11-10T14:26:29.528Z,2.00
2022-11-10T14:29:38.305Z,2.00
2022-11-10T14:32:25.188Z,3.00
2022-11-10T14:35:19.002Z,3.00
2022-11-10T14:38:06.921Z,2.00
2022-11-10T14:40:53.205Z,2.00
2022-11-10T14:43:40.109Z,2.00
2022-11-10T14:46:27.320Z,2.25
2022-11-10T14:49:13.157Z,2.00
2022-11-10T14:51:59.494Z,4.00
2022-11-10T14:54:45.795Z,2.67
2022-11-10T14:57:31.689Z,2.00
2022-11-10T15:00:19.333Z,2.00
2022-11-10T15:03:07.560Z,1.75
2022-11-10T15:05:53.681Z,2.00
2022-11-10T15:08:39.731Z,1.25
2022-11-10T15:11:39.038Z,2.50
2022-11-10T15:14:39.458Z,1.75
2022-11-10T15:17:46.951Z,2.50
2022-11-10T15:20:37.191Z,1.25
2022-11-10T15:23:32.119Z,2.33
2022-11-10T15:26:20.841Z,2.67
2022-11-10T15:29:06.804Z,2.00
2022-11-10T15:31:52.953Z,1.50
2022-11-10T15:34:42.659Z,1.50
2022-11-10T15:37:31.415Z,2.25
2022-11-10T15:40:31.458Z,1.00
2022-11-10T15:43:27.416Z,1.50
2022-11-10T15:46:18.442Z,1.00
2022-11-10T15:49:04.601Z,1.00
2022-11-10T15:51:51.109Z,3.00
2022-11-10T15:54:38.418Z,3.00
2022-11-10T15:57:24.362Z,1.00
2022-11-10T16:00:13.215Z,1.25
2022-11-10T16:02:59.104Z,2.25
2022-11-10T16:05:45.109Z,1.00
2022-11-10T16:08:32.132Z,2.00
2022-11-10T16:11:20.120Z,2.00
2022-11-10T16:14:06.263Z,2.00
2022-11-10T16:16:52.219Z,2.00
2022-11-10T16:19:38.543Z,2.00
2022-11-10T16:22:24.450Z,2.00
2022-11-10T16:25:14.746Z,2.00
2022-11-10T16:28:06.081Z,1.25
2022-11-10T16:30:52.364Z,2.00
2022-11-10T16:33:38.356Z,1.33
2022-11-10T16:36:25.253Z,1.67
2022-11-10T16:39:12.402Z,2.00
2022-11-10T16:41:58.501Z,2.00
2022-11-10T16:44:45.856Z,2.00
2022-11-10T16:47:32.574Z,2.75
2022-11-10T16:50:26.540Z,2.00
2022-11-10T16:53:15.293Z,2.00
2022-11-10T16:56:01.153Z,2.00
2022-11-10T16:58:47.141Z,3.00
2022-11-10T17:01:35.237Z,2.00
2022-11-10T17:04:21.272Z,1.00
2022-11-10T17:07:10.518Z,2.75
2022-11-10T17:09:56.841Z,2.75
2022-11-10T17:12:42.893Z,3.00
2022-11-10T17:15:28.795Z,2.00
2022-11-10T17:18:18.042Z,2.00
2022-11-10T17:21:04.239Z,2.67
2022-11-10T17:23:50.753Z,1.75
2022-11-10T17:26:36.701Z,3.00
2022-11-10T17:29:23.705Z,2.00
2022-11-10T17:32:09.783Z,1.75
2022-11-10T17:34:57.031Z,2.50
2022-11-10T17:37:43.170Z,3.00
2022-11-10T17:40:29.374Z,3.00
2022-11-10T17:43:15.343Z,4.00
2022-11-10T17:46:01.120Z,4.50
2022-11-10T17:48:47.717Z,4.00
2022-11-10T17:51:35.280Z,4.00
2022-11-10T17:54:21.246Z,4.00
2022-11-10T17:57:09.207Z,4.00
2022-11-10T17:59:57.744Z,2.00
2022-11-10T18:02:43.733Z,3.00
2022-11-10T18:05:29.925Z,4.00
2022-11-10T18:08:17.637Z,6.00
2022-11-10T18:11:03.519Z,4.33
2022-11-10T18:13:49.670Z,4.33
2022-11-10T18:16:35.943Z,3.00
2022-11-10T18:19:21.759Z,5.00
2022-11-10T18:22:07.854Z,4.33
2022-11-10T18:24:55.719Z,3.67
2022-11-10T18:27:41.758Z,4.00
2022-11-10T18:30:32.265Z,5.00
2022-11-10T18:33:21.405Z,5.00
2022-11-10T18:36:08.776Z,6.00
2022-11-10T18:38:54.664Z,4.67
2022-11-10T18:41:52.130Z,4.00
2022-11-10T18:44:38.555Z,4.67
2022-11-10T18:47:24.481Z,4.00
2022-11-10T18:50:10.953Z,6.00
2022-11-10T18:52:57.139Z,4.50
2022-11-10T18:55:45.720Z,4.25
2022-11-10T18:58:32.813Z,4.75
2022-11-10T19:01:18.932Z,5.00
2022-11-10T19:04:05.358Z,3.50
2022-11-10T19:06:52.086Z,6.00
2022-11-10T19:09:38.156Z,5.75
2022-11-10T19:12:26.775Z,5.00
2022-11-10T19:15:14.139Z,3.50
2022-11-10T19:18:00.245Z,4.25
2022-11-10T19:20:46.214Z,4.00
2022-11-10T19:23:32.358Z,4.25
2022-11-10T19:26:22.834Z,3.00
2022-11-10T19:29:08.955Z,4.00
2022-11-10T19:31:56.183Z,4.25
2022-11-10T19:34:43.048Z,4.25
2022-11-10T19:37:34.209Z,4.00
2022-11-10T19:40:20.705Z,3.00
2022-11-10T19:43:06.783Z,3.00
2022-11-10T19:45:52.728Z,4.00
2022-11-10T19:48:40.899Z,3.75
2022-11-10T19:51:28.483Z,4.75
2022-11-10T19:54:14.421Z,4.25
2022-11-10T19:57:01.049Z,4.25
2022-11-10T19:59:46.995Z,4.00
2022-11-10T20:02:33.018Z,3.25
2022-11-10T20:05:20.147Z,4.00
2022-11-10T20:08:12.198Z,3.67
2022-11-10T20:11:01.746Z,4.00
2022-11-10T20:13:51.956Z,6.00
2022-11-10T20:16:40.411Z,3.25
2022-11-10T20:19:26.407Z,4.00
2022-11-10T20:22:13.719Z,3.33
2022-11-10T20:24:59.844Z,4.00
2022-11-10T20:27:45.774Z,3.00
2022-11-10T20:30:31.571Z,3.00
2022-11-10T20:33:17.447Z,3.25
2022-11-10T20:36:07.404Z,3.33
2022-11-10T20:38:55.283Z,3.00
2022-11-10T20:41:41.252Z,6.00
2022-11-10T20:44:27.782Z,5.00
2022-11-10T20:47:13.687Z,3.67
2022-11-10T20:49:59.657Z,4.00
2022-11-10T20:52:45.503Z,3.00
2022-11-10T20:55:52.532Z,3.25
2022-11-10T20:58:38.878Z,3.00
2022-11-10T21:01:25.132Z,2.50
2022-11-10T21:04:11.387Z,3.50
2022-11-10T21:06:57.487Z,4.33
2022-11-10T21:09:43.364Z,2.00
2022-11-10T21:12:48.235Z,5.50
2022-11-10T21:15:34.415Z,4.00
2022-11-10T21:18:20.342Z,3.00
2022-11-10T21:21:06.704Z,3.50
2022-11-10T21:23:56.963Z,4.00
2022-11-10T21:26:42.813Z,4.00
2022-11-10T21:29:29.881Z,3.75
2022-11-10T21:32:15.818Z,4.25
2022-11-10T21:35:01.862Z,3.25
2022-11-10T21:37:47.850Z,4.00
2022-11-10T21:40:33.975Z,3.00
2022-11-10T21:43:20.565Z,1.00
2022-11-10T21:46:08.308Z,3.00
2022-11-10T21:48:54.593Z,3.50
2022-11-10T21:51:40.739Z,4.00
2022-11-10T21:54:26.742Z,4.00
2022-11-10T21:57:12.784Z,2.00
2022-11-10T21:59:58.880Z,2.50
2022-11-10T22:02:45.920Z,2.67
2022-11-10T22:05:32.154Z,3.00
2022-11-10T22:08:21.728Z,3.75
2022-11-10T22:11:26.221Z,3.25
2022-11-10T22:14:29.277Z,3.75
2022-11-10T22:17:35.714Z,2.25
2022-11-10T22:20:23.191Z,3.00
2022-11-10T22:23:09.522Z,3.00
2022-11-10T22:25:55.348Z,2.00
2022-11-10T22:28:41.234Z,2.00
2022-11-10T22:31:27.332Z,3.00
2022-11-10T22:34:13.341Z,3.75
2022-11-10T22:37:00.647Z,3.75
2022-11-10T22:40:04.520Z,2.75
2022-11-10T22:43:08.461Z,3.50
2022-11-10T22:45:55.381Z,4.50
2022-11-10T22:48:41.716Z,3.00
2022-11-10T22:51:27.983Z,3.00
2022-11-10T22:54:16.027Z,2.00
2022-11-10T22:57:02.149Z,2.00
2022-11-10T22:59:47.994Z,2.25
2022-11-10T23:02:34.007Z,2.67
2022-11-10T23:05:19.953Z,3.00
2022-11-10T23:08:06.270Z,3.00
2022-11-10T23:10:59.718Z,2.00
2022-11-10T23:13:45.999Z,2.75
2022-11-10T23:16:34.083Z,2.00
2022-11-10T23:19:20.208Z,3.00
2022-11-10T23:22:06.236Z,3.50
2022-11-10T23:24:56.995Z,3.75
2022-11-10T23:27:44.924Z,2.25
2022-11-10T23:30:30.741Z,2.50
2022-11-10T23:33:16.803Z,3.00
2022-11-10T23:36:03.950Z,3.00
2022-11-10T23:38:50.112Z,2.00
2022-11-10T23:41:35.979Z,3.00
2022-11-10T23:44:23.249Z,1.75
2022-11-10T23:47:09.299Z,3.00
2022-11-10T23:49:55.328Z,3.00
2022-11-10T23:52:41.283Z,3.00
2022-11-10T23:55:27.083Z,2.00
2022-11-10T23:58:13.103Z,3.00
